Time;durP1;ratioP1;P1;durP2;ratioP2;P2;SDS_P1;SDS_P2;PMS_P1;PMS_P2;Temp;Humidity;BMP_temperature;BMP_pressure;BME280_temperature;BME280_humidity;BME280_pressure;Samples;Min_cycle;Max_cycle;Signal;HPM_P1;HPM_P2
2022/12/23 00:00:22;;;;;;;6.95;4.60;;;;;;;5.62;76.29;96370.81;1744108;80;25647;-72
2022/12/23 00:02:50;;;;;;;5.87;4.25;;;;;;;5.64;76.23;96376.28;1743741;80;25226;-75
2022/12/23 00:05:17;;;;;;;8.28;4.58;;;;;;;5.68;76.22;96380.17;1743948;80;27408;-73
2022/12/23 00:07:44;;;;;;;6.92;4.35;;;;;;;5.69;76.17;96383.67;1743629;80;26063;-73
2022/12/23 00:10:11;;;;;;;9.45;4.80;;;;;;;5.71;76.10;96381.63;1744008;80;25731;-71
2022/12/23 00:15:23;;;;;;;6.58;4.25;;;;;;;5.74;76.03;96374.52;1743873;80;25680;-74
2022/12/23 00:17:50;;;;;;;5.78;3.95;;;;;;;5.75;76.02;96370.82;1744038;80;27441;-72
2022/12/23 00:20:16;;;;;;;5.90;3.85;;;;;;;5.76;75.97;96377.83;1743932;80;25711;-73
2022/12/23 00:25:40;;;;;;;8.28;4.05;;;;;;;5.77;75.91;96371.44;1743938;80;25808;-74
2022/12/23 00:28:14;;;;;;;5.40;3.80;;;;;;;5.78;75.90;96379.78;1739591;80;25740;-73
2022/12/23 00:31:03;;;;;;;6.17;4.08;;;;;;;5.79;75.87;96373.41;1736602;80;27399;-72
2022/12/23 00:33:42;;;;;;;4.37;3.17;;;;;;;5.80;75.79;96382.55;1736570;80;25439;-73
2022/12/23 00:36:28;;;;;;;7.92;4.33;;;;;;;5.79;75.73;96374.74;1736604;80;25803;-73
2022/12/23 00:44:28;;;;;;;4.22;3.05;;;;;;;5.79;75.60;96400.19;1736344;80;27429;-72
2022/12/23 00:46:55;;;;;;;5.28;3.00;;;;;;;5.80;75.58;96405.82;1736614;80;25526;-74
2022/12/23 00:52:10;;;;;;;3.65;2.80;;;;;;;5.84;75.46;96409.75;1736633;80;26375;-73
2022/12/23 00:54:37;;;;;;;5.72;3.33;;;;;;;5.83;75.39;96406.75;1736623;80;25772;-73
2022/12/23 00:57:04;;;;;;;5.03;3.10;;;;;;;5.84;75.32;96406.24;1736673;80;28170;-74
2022/12/23 00:59:31;;;;;;;4.03;3.02;;;;;;;5.82;75.27;96404.28;1736516;80;25760;-74
2022/12/23 01:07:28;;;;;;;3.52;3.00;;;;;;;5.78;75.20;96413.27;1736323;80;25736;-75
2022/12/23 01:09:55;;;;;;;4.25;3.25;;;;;;;5.77;75.21;96408.93;1736530;80;27327;-73
2022/12/23 01:12:21;;;;;;;3.83;2.50;;;;;;;5.76;75.16;96403.27;1736567;80;25710;-75
2022/12/23 01:14:48;;;;;;;3.92;2.58;;;;;;;5.76;75.10;96396.57;1736466;80;26135;-74
2022/12/23 01:17:15;;;;;;;3.12;2.47;;;;;;;5.76;75.10;96397.91;1736653;80;25720;-72
2022/12/23 01:19:41;;;;;;;2.58;2.12;;;;;;;5.75;75.08;96400.27;1736681;80;25744;-73
2022/12/23 01:22:08;;;;;;;2.58;2.25;;;;;;;5.75;75.03;96398.42;1736240;80;28456;-74
2022/12/23 01:24:35;;;;;;;3.17;1.67;;;;;;;5.75;75.02;96404.29;1736472;80;25814;-74
2022/12/23 01:27:02;;;;;;;2.85;1.82;;;;;;;5.75;75.00;96394.41;1736505;80;25787;-74
2022/12/23 01:29:28;;;;;;;2.95;1.85;;;;;;;5.75;75.03;96401.61;1727563;80;25653;-73
2022/12/23 01:31:55;;;;;;;3.52;2.02;;;;;;;5.74;75.11;96408.00;1728000;80;25516;-72
2022/12/23 01:34:22;;;;;;;2.65;1.65;;;;;;;5.73;75.20;96403.66;1727987;80;28050;-73
2022/12/23 01:36:49;;;;;;;2.35;1.82;;;;;;;5.73;75.29;96402.33;1758329;80;25759;-73
2022/12/23 01:39:15;;;;;;;3.25;1.87;;;;;;;5.70;75.29;96396.04;1771411;80;25681;-73
2022/12/23 01:44:48;;;;;;;2.58;1.75;;;;;;;5.63;75.45;96400.58;1771158;80;26041;-76
2022/12/23 01:47:26;;;;;;;3.08;1.87;;;;;;;5.60;75.50;96409.83;1767113;80;27537;-72
2022/12/23 01:50:07;;;;;;;3.02;1.90;;;;;;;5.60;75.52;96404.99;1747852;80;25738;-73
2022/12/23 01:52:39;;;;;;;2.40;2.00;;;;;;;5.59;75.55;96404.68;1718962;83;25779;-73
2022/12/23 01:55:07;;;;;;;2.98;1.92;;;;;;;5.56;75.57;96407.25;1719105;83;35363;-72
2022/12/23 01:57:37;;;;;;;2.15;1.90;;;;;;;5.50;75.57;96412.09;1719096;83;25796;-72
2022/12/23 02:05:39;;;;;;;2.50;1.75;;;;;;;5.38;75.77;96417.73;1718832;83;25889;-72
2022/12/23 02:11:13;;;;;;;2.62;2.00;;;;;;;5.31;75.91;96426.27;1718854;83;26402;-73
2022/12/23 02:16:50;;;;;;;3.27;2.37;;;;;;;5.26;76.08;96420.17;1718799;83;25784;-75
2022/12/23 02:19:46;;;;;;;3.80;2.17;;;;;;;5.22;76.09;96422.11;1715444;83;25807;-73
2022/12/23 02:22:24;;;;;;;2.30;1.70;;;;;;;5.19;76.11;96433.23;1681788;85;26467;-73
2022/12/23 02:25:14;;;;;;;2.70;1.90;;;;;;;5.15;76.11;96435.48;1662380;86;25812;-72
2022/12/23 02:28:07;;;;;;;2.83;2.05;;;;;;;5.12;76.22;96433.20;1663406;86;28000;-74
2022/12/23 02:30:51;;;;;;;2.42;1.92;;;;;;;5.06;76.35;96436.17;1686864;83;25798;-73
2022/12/23 02:33:35;;;;;;;1.92;1.62;;;;;;;5.05;76.48;96436.38;1689776;81;25770;-75
2022/12/23 02:36:28;;;;;;;4.25;1.60;;;;;;;5.06;76.47;96431.34;1681469;83;25900;-73
2022/12/23 02:39:35;;;;;;;2.02;1.82;;;;;;;5.07;76.52;96428.98;1696233;81;25287;-72
2022/12/23 02:42:10;;;;;;;2.30;1.92;;;;;;;5.08;76.52;96437.28;1663810;83;28212;-73
2022/12/23 02:44:51;;;;;;;2.40;1.80;;;;;;;5.08;76.55;96435.44;1647462;84;25755;-73
2022/12/23 02:47:35;;;;;;;2.72;1.57;;;;;;;5.06;76.56;96435.35;1583961;89;25802;-73
2022/12/23 02:50:07;;;;;;;4.20;2.50;;;;;;;5.01;76.53;96433.77;1516478;94;25870;-73
2022/12/23 02:52:36;;;;;;;4.78;2.47;;;;;;;4.99;76.67;96422.45;1530110;93;25758;-73
2022/12/23 02:55:14;;;;;;;3.30;2.25;;;;;;;4.99;76.70;96432.63;1519433;94;27406;-74
2022/12/23 02:57:45;;;;;;;2.75;2.35;;;;;;;4.98;76.65;96430.16;1534570;93;25799;-73
2022/12/23 03:00:14;;;;;;;4.17;2.10;;;;;;;4.98;76.66;96426.14;1500322;94;25942;-73
2022/12/23 03:02:43;;;;;;;2.85;2.00;;;;;;;4.94;76.59;96424.91;1494617;95;26781;-72
2022/12/23 03:05:38;;;;;;;3.33;1.85;;;;;;;4.92;76.65;96430.97;1518460;94;25751;-74
2022/12/23 03:08:12;;;;;;;3.05;1.95;;;;;;;4.93;76.66;96431.28;1494678;94;28055;-73
2022/12/23 03:10:59;;;;;;;2.08;1.87;;;;;;;4.95;76.73;96435.38;1491745;96;25798;-74
2022/12/23 03:13:45;;;;;;;3.02;2.30;;;;;;;5.02;76.68;96438.10;1480117;96;25430;-76
2022/12/23 03:16:23;;;;;;;2.55;1.90;;;;;;;5.03;76.59;96437.08;1492128;96;25891;-73
2022/12/23 03:19:12;;;;;;;2.20;1.82;;;;;;;5.03;76.49;96433.07;1455050;97;25388;-73
2022/12/23 03:22:07;;;;;;;2.25;1.60;;;;;;;5.02;76.44;96426.06;1474771;96;28320;-73
2022/12/23 03:25:06;;;;;;;4.35;1.80;;;;;;;4.99;76.45;96433.14;1489489;95;25571;-73
2022/12/23 03:27:40;;;;;;;6.05;2.92;;;;;;;4.94;76.42;96427.59;1507657;95;26265;-72
2022/12/23 03:30:12;;;;;;;5.85;2.87;;;;;;;4.93;76.44;96424.09;1486290;96;26535;-73
2022/12/23 03:32:58;;;;;;;3.58;2.20;;;;;;;4.89;76.43;96426.84;1486498;96;26871;-73
2022/12/23 03:35:33;;;;;;;2.10;1.87;;;;;;;4.90;76.53;96431.16;1465471;97;28256;-73
2022/12/23 03:38:02;;;;;;;5.42;2.60;;;;;;;4.91;76.58;96434.66;1474083;97;25832;-73
2022/12/23 03:40:40;;;;;;;3.75;2.45;;;;;;;4.93;76.58;96431.28;1475137;97;25392;-72
2022/12/23 03:43:24;;;;;;;2.58;1.95;;;;;;;4.96;76.53;96434.87;1454567;97;25973;-72
2022/12/23 03:45:56;;;;;;;2.42;1.90;;;;;;;4.97;76.42;96443.21;1441947;94;25894;-72
2022/12/23 03:48:33;;;;;;;5.05;2.87;;;;;;;4.95;76.41;96435.92;1486776;94;32641;-73
2022/12/23 03:51:13;;;;;;;7.78;4.42;;;;;;;4.91;76.43;96442.17;1487393;94;25892;-72
2022/12/23 03:53:48;;;;;;;8.18;4.90;;;;;;;4.90;76.38;96441.03;1488847;94;25893;-73
2022/12/23 03:56:20;;;;;;;7.72;3.72;;;;;;;4.87;76.35;96440.91;1456655;98;26541;-74
2022/12/23 03:59:01;;;;;;;3.95;2.45;;;;;;;4.86;76.33;96446.45;1456787;98;30483;-72
2022/12/23 04:02:03;;;;;;;3.85;2.30;;;;;;;4.82;76.40;96442.55;1454133;98;28205;-72
2022/12/23 04:04:59;;;;;;;3.98;3.00;;;;;;;4.87;76.60;96442.25;1457538;98;25946;-72
2022/12/23 04:07:31;;;;;;;2.83;1.80;;;;;;;4.94;76.63;96439.11;1458527;97;25810;-72
2022/12/23 04:09:59;;;;;;;2.42;1.95;;;;;;;4.99;76.63;96439.32;1458479;98;25878;-72
2022/12/23 04:12:28;;;;;;;2.15;1.95;;;;;;;5.05;76.61;96445.73;1449488;98;25809;-74
2022/12/23 04:14:54;;;;;;;2.80;2.00;;;;;;;5.11;76.58;96450.78;1448178;99;27438;-72
2022/12/23 04:17:21;;;;;;;2.77;2.25;;;;;;;5.14;76.53;96447.20;1422847;100;25877;-72
2022/12/23 04:19:49;;;;;;;2.37;1.65;;;;;;;5.18;76.47;96443.63;1422916;99;26002;-72
2022/12/23 04:22:16;;;;;;;2.25;1.90;;;;;;;5.21;76.46;96436.51;1426043;100;25750;-72
2022/12/23 04:24:43;;;;;;;2.22;1.75;;;;;;;5.23;76.40;96437.14;1426302;100;25745;-72
2022/12/23 04:27:13;;;;;;;2.72;2.20;;;;;;;5.25;76.40;96438.59;1473002;93;27423;-73
2022/12/23 04:29:42;;;;;;;2.35;1.70;;;;;;;5.27;76.39;96429.85;1538720;91;25996;-72
2022/12/23 04:32:09;;;;;;;2.45;1.92;;;;;;;5.27;76.30;96431.19;1490046;94;25989;-72
2022/12/23 04:34:36;;;;;;;2.42;1.92;;;;;;;5.28;76.30;96434.18;1489824;94;25820;-71
2022/12/23 04:37:03;;;;;;;3.40;2.02;;;;;;;5.30;76.25;96430.80;1489939;94;25881;-73
2022/12/23 04:39:29;;;;;;;3.98;2.15;;;;;;;5.29;76.15;96422.97;1496105;92;27462;-72
2022/12/23 04:41:56;;;;;;;2.22;1.77;;;;;;;5.25;76.15;96433.23;1546391;91;25964;-74
2022/12/23 04:44:23;;;;;;;2.85;1.92;;;;;;;5.27;76.22;96429.85;1546451;91;25987;-72
2022/12/23 04:46:49;;;;;;;3.80;2.47;;;;;;;5.29;76.21;96431.82;1546381;91;25834;-72
2022/12/23 04:49:16;;;;;;;2.95;2.27;;;;;;;5.30;76.16;96436.66;1546312;91;25878;-74
2022/12/23 04:51:42;;;;;;;3.47;2.17;;;;;;;5.33;76.39;96439.73;1546466;91;27390;-72
2022/12/23 04:54:09;;;;;;;3.45;2.52;;;;;;;5.35;76.35;96432.34;1654394;83;25571;-72
2022/12/23 04:56:36;;;;;;;2.80;2.45;;;;;;;5.35;76.16;96433.67;1692260;83;25731;-73
2022/12/23 04:59:03;;;;;;;6.62;3.42;;;;;;;5.34;76.07;96432.02;1664349;83;25670;-72
2022/12/23 05:01:29;;;;;;;3.77;3.15;;;;;;;5.32;76.07;96431.39;1667093;83;25861;-72
2022/12/23 05:03:56;;;;;;;4.65;3.12;;;;;;;5.32;76.08;96430.05;1667579;83;27392;-73
2022/12/23 05:06:23;;;;;;;4.75;3.35;;;;;;;5.32;76.01;96430.05;1663768;83;25289;-74
2022/12/23 05:08:49;;;;;;;5.35;3.50;;;;;;;5.32;76.00;96430.05;1692035;83;25698;-72
2022/12/23 05:11:16;;;;;;;6.42;4.12;;;;;;;5.32;75.99;96423.36;1659316;83;25697;-72
2022/12/23 05:13:43;;;;;;;4.80;3.33;;;;;;;5.32;75.98;96424.70;1654337;83;25793;-72
2022/12/23 05:16:09;;;;;;;4.30;3.20;;;;;;;5.31;75.97;96423.05;1683691;83;27374;-74
2022/12/23 05:18:36;;;;;;;4.72;3.10;;;;;;;5.31;75.92;96420.38;1677555;83;25477;-72
2022/12/23 05:21:03;;;;;;;4.72;3.25;;;;;;;5.26;75.87;96424.70;1654345;83;25935;-72
2022/12/23 05:23:29;;;;;;;3.52;2.87;;;;;;;5.22;75.86;96423.44;1680728;83;25746;-74
2022/12/23 05:25:56;;;;;;;3.95;2.98;;;;;;;5.18;75.89;96428.91;1654242;83;25731;-72
2022/12/23 05:28:23;;;;;;;4.25;3.25;;;;;;;5.15;75.95;96416.75;1710023;77;27566;-70
2022/12/23 05:31:03;;;;;;;4.35;2.95;;;;;;;5.08;75.93;96414.55;1801830;77;25825;-75
2022/12/23 05:33:31;;;;;;;5.80;3.08;;;;;;;4.96;75.96;96405.45;1776889;80;25813;-72
2022/12/23 05:35:58;;;;;;;3.37;2.80;;;;;;;4.89;76.11;96402.77;1776928;80;26483;-72
2022/12/23 05:38:25;;;;;;;3.92;2.33;;;;;;;4.85;76.09;96405.52;1777000;80;25805;-75
2022/12/23 05:40:52;;;;;;;4.20;3.10;;;;;;;4.78;76.19;96391.83;1776912;80;27387;-72
2022/12/23 05:43:19;;;;;;;5.97;3.90;;;;;;;4.78;76.30;96395.33;1776900;80;25458;-72
2022/12/23 05:45:46;;;;;;;7.35;4.37;;;;;;;4.78;76.33;96399.34;1776893;80;25227;-72
2022/12/23 05:48:12;;;;;;;7.15;4.75;;;;;;;4.80;76.33;96399.14;1776899;80;26612;-72
2022/12/23 05:50:39;;;;;;;16.10;10.03;;;;;;;4.78;76.26;96395.33;1777006;80;25722;-71
2022/12/23 05:53:07;;;;;;;12.23;7.90;;;;;;;4.74;76.28;96397.25;1776917;80;27419;-73
2022/12/23 05:55:34;;;;;;;13.05;7.37;;;;;;;4.75;76.37;96397.05;1776900;80;25713;-72
2022/12/23 05:58:01;;;;;;;10.93;7.17;;;;;;;4.70;76.26;96399.52;1776967;80;25768;-74
2022/12/23 06:00:28;;;;;;;9.28;5.10;;;;;;;4.65;76.26;96400.10;1776973;80;25800;-72
2022/12/23 06:02:54;;;;;;;8.18;5.05;;;;;;;4.64;76.31;96402.46;1776883;80;25737;-71
2022/12/23 06:05:22;;;;;;;6.12;3.80;;;;;;;4.61;76.26;96403.36;1776712;80;27444;-72
2022/12/23 06:07:48;;;;;;;5.22;3.45;;;;;;;4.54;76.35;96403.34;1776648;80;25704;-72
2022/12/23 06:10:15;;;;;;;5.35;3.45;;;;;;;4.55;76.52;96404.99;1776857;80;25732;-74
2022/12/23 06:12:42;;;;;;;6.85;3.98;;;;;;;4.60;76.72;96402.53;1776829;80;25766;-73
2022/12/23 06:15:10;;;;;;;6.40;4.45;;;;;;;4.67;76.69;96403.41;1777001;80;25459;-72
2022/12/23 06:17:37;;;;;;;4.92;3.95;;;;;;;4.67;76.49;96402.07;1776986;80;27769;-72
2022/12/23 06:20:05;;;;;;;4.67;3.52;;;;;;;4.63;76.37;96408.00;1776833;80;25684;-72
2022/12/23 06:22:32;;;;;;;5.22;3.65;;;;;;;4.56;76.53;96402.64;1777037;80;25694;-71
2022/12/23 06:24:59;;;;;;;5.30;4.28;;;;;;;4.57;76.66;96400.28;1776890;80;25661;-73
2022/12/23 06:27:25;;;;;;;8.08;3.95;;;;;;;4.57;76.65;96402.95;1777020;80;25678;-72
2022/12/23 06:29:52;;;;;;;4.28;3.80;;;;;;;4.58;76.68;96401.11;1778401;80;27345;-72
2022/12/23 06:32:18;;;;;;;4.40;3.70;;;;;;;4.60;76.79;96402.53;1779577;80;25486;-74
2022/12/23 06:34:45;;;;;;;4.78;3.77;;;;;;;4.64;76.81;96401.63;1779660;80;25739;-72
2022/12/23 06:37:12;;;;;;;10.90;7.03;;;;;;;4.65;76.77;96405.96;1813065;77;25845;-71
2022/12/23 06:39:39;;;;;;;13.45;8.80;;;;;;;4.63;76.59;96402.14;1830191;77;25739;-71
2022/12/23 06:42:05;;;;;;;48.78;25.75;;;;;;;4.60;76.51;96414.56;1807016;77;27396;-73
2022/12/23 06:44:32;;;;;;;69.50;34.63;;;;;;;4.52;76.45;96416.58;1829833;77;25672;-72
2022/12/23 06:46:59;;;;;;;57.85;31.20;;;;;;;4.49;76.53;96429.82;1809184;77;25720;-72
2022/12/23 06:49:25;;;;;;;47.45;27.87;;;;;;;4.44;76.49;96410.07;1797478;77;26419;-72
2022/12/23 06:51:52;;;;;;;34.65;22.15;;;;;;;4.41;76.52;96419.30;1815741;77;25671;-72
2022/12/23 06:54:18;;;;;;;43.95;23.05;;;;;;;4.35;76.57;96418.22;1801917;77;27409;-71
2022/12/23 06:56:45;;;;;;;33.05;20.17;;;;;;;4.32;76.59;96411.96;1797135;77;25689;-72
2022/12/23 06:59:12;;;;;;;32.00;20.32;;;;;;;4.32;76.69;96412.47;1797368;77;25247;-72
2022/12/23 07:01:39;;;;;;;33.55;19.92;;;;;;;4.34;76.79;96414.44;1797440;77;26482;-72
2022/12/23 07:04:05;;;;;;;32.85;19.80;;;;;;;4.31;76.84;96408.14;1797463;77;25770;-73
2022/12/23 07:06:32;;;;;;;34.15;18.12;;;;;;;4.31;76.87;96413.49;1797530;77;27359;-72
2022/12/23 07:08:59;;;;;;;32.23;17.15;;;;;;;4.26;76.86;96410.06;1797354;77;25418;-72
2022/12/23 07:11:25;;;;;;;40.00;17.52;;;;;;;4.23;77.04;96417.63;1797689;77;25757;-73
2022/12/23 07:13:52;;;;;;;40.00;18.20;;;;;;;4.22;77.06;96420.84;1797679;77;26297;-72
2022/12/23 07:16:19;;;;;;;34.75;17.77;;;;;;;4.18;77.16;96424.09;1820661;77;25767;-74
2022/12/23 07:18:46;;;;;;;39.00;16.87;;;;;;;4.18;77.32;96426.76;1780408;78;27352;-72
2022/12/23 07:21:12;;;;;;;33.85;17.62;;;;;;;4.16;77.33;96429.62;1797609;76;25773;-72
2022/12/23 07:23:39;;;;;;;29.60;15.80;;;;;;;4.14;77.32;96437.50;1808683;77;25735;-72
2022/12/23 07:26:06;;;;;;;25.10;14.03;;;;;;;4.11;77.32;96422.69;1809332;77;25745;-72
2022/12/23 07:28:32;;;;;;;28.67;14.90;;;;;;;4.13;77.46;96433.18;1820362;77;25756;-72
2022/12/23 07:30:59;;;;;;;34.00;17.12;;;;;;;4.16;77.41;96434.13;1788135;77;27358;-72
2022/12/23 07:33:26;;;;;;;35.50;19.23;;;;;;;4.16;77.38;96423.45;1780527;77;25691;-73
2022/12/23 07:35:58;;;;;;;37.03;19.02;;;;;;;4.14;77.37;96422.81;1814838;77;25730;-72
2022/12/23 07:38:25;;;;;;;32.15;18.25;;;;;;;4.15;77.46;96417.80;1797162;77;33012;-74
2022/12/23 07:40:52;;;;;;;31.97;16.67;;;;;;;4.18;77.49;96419.57;1780713;77;26332;-70
2022/12/23 07:43:18;;;;;;;27.30;16.37;;;;;;;4.20;77.46;96421.55;1800629;77;27500;-72
2022/12/23 07:45:45;;;;;;;47.15;18.23;;;;;;;4.22;77.46;96421.35;1791175;77;25675;-72
2022/12/23 07:48:12;;;;;;;33.20;16.17;;;;;;;4.21;77.42;96423.70;1780745;77;25620;-72
2022/12/23 07:50:38;;;;;;;24.77;13.93;;;;;;;4.21;77.51;96421.03;1780520;77;26451;-74
2022/12/23 07:53:05;;;;;;;29.10;12.65;;;;;;;4.24;77.65;96423.29;1792507;77;25461;-72
2022/12/23 07:55:31;;;;;;;21.45;11.95;;;;;;;4.28;77.76;96425.39;1798905;77;27406;-73
2022/12/23 07:57:58;;;;;;;26.25;12.90;;;;;;;4.30;77.73;96427.36;1788498;77;25417;-70
2022/12/23 08:00:25;;;;;;;29.05;13.80;;;;;;;4.34;77.74;96427.80;1803164;77;25699;-72
2022/12/23 08:02:51;;;;;;;36.85;20.10;;;;;;;4.33;77.71;96425.64;1815544;77;25685;-75
2022/12/23 08:05:19;;;;;;;37.13;19.98;;;;;;;4.34;77.71;96418.45;1806572;77;25209;-71
2022/12/23 08:07:48;;;;;;;45.05;26.20;;;;;;;4.38;77.70;96422.86;1780851;77;27352;-71
2022/12/23 08:10:14;;;;;;;51.13;27.60;;;;;;;4.40;77.65;96406.96;1780293;77;25676;-71
2022/12/23 08:12:40;;;;;;;47.60;27.27;;;;;;;4.42;77.49;96409.44;1780611;77;25775;-72
2022/12/23 08:15:08;;;;;;;51.63;31.35;;;;;;;4.39;77.51;96413.32;1802604;77;25712;-72
2022/12/23 08:17:35;;;;;;;45.60;26.75;;;;;;;4.39;77.51;96414.66;1809756;78;25759;-72
2022/12/23 08:20:01;;;;;;;45.15;25.80;;;;;;;4.41;77.59;96416.63;1797953;77;27343;-73
2022/12/23 08:22:31;;;;;;;23.70;14.20;;;;;;;4.43;77.64;96421.27;1816953;78;25793;-72
2022/12/23 08:24:58;;;;;;;31.55;19.15;;;;;;;4.51;78.00;96417.09;1802297;77;25686;-72
2022/12/23 08:27:25;;;;;;;8.03;5.90;;;;;;;4.59;78.00;96422.27;1793227;77;25841;-72
2022/12/23 08:29:52;;;;;;;7.97;4.33;;;;;;;4.65;78.04;96418.81;1812002;77;25716;-71
2022/12/23 08:32:18;;;;;;;4.50;3.00;;;;;;;4.78;78.26;96409.20;1803115;77;27398;-73
2022/12/23 08:34:45;;;;;;;4.08;3.22;;;;;;;4.93;78.38;96410.72;1817979;78;25368;-74
2022/12/23 08:37:12;;;;;;;3.10;2.60;;;;;;;5.06;78.35;96413.95;1807237;77;25722;-72
2022/12/23 08:39:38;;;;;;;3.92;2.80;;;;;;;5.13;78.26;96408.09;1812794;77;26433;-72
2022/12/23 08:42:05;;;;;;;3.90;2.90;;;;;;;5.24;78.30;96409.36;1797567;77;25739;-72
2022/12/23 08:44:32;;;;;;;19.52;11.10;;;;;;;5.35;78.25;96405.58;1812338;77;27408;-72
2022/12/23 08:46:58;;;;;;;30.95;17.95;;;;;;;5.42;78.09;96405.09;1807143;77;25656;-72
2022/12/23 08:49:25;;;;;;;23.10;13.88;;;;;;;5.44;77.78;96405.69;1818079;77;25662;-74
2022/12/23 08:51:52;;;;;;;16.85;10.70;;;;;;;5.48;77.72;96408.79;1819659;77;26454;-72
2022/12/23 08:54:19;;;;;;;33.28;18.07;;;;;;;5.51;77.65;96406.23;1798013;77;25998;-72
2022/12/23 08:56:46;;;;;;;33.65;20.57;;;;;;;5.50;77.54;96405.91;1797474;77;27421;-72
2022/12/23 08:59:17;;;;;;;41.20;25.05;;;;;;;5.50;77.47;96403.23;1797427;77;25667;-74
2022/12/23 09:01:44;;;;;;;46.57;29.67;;;;;;;5.49;77.38;96393.55;1797981;77;25671;-72
2022/12/23 09:04:10;;;;;;;51.65;30.95;;;;;;;5.48;77.28;96394.58;1797562;77;25664;-72
2022/12/23 09:06:41;;;;;;;56.63;31.35;;;;;;;5.45;77.18;96398.48;1797632;77;25764;-73
2022/12/23 09:09:10;;;;;;;64.32;33.33;;;;;;;5.44;77.28;96394.98;1799767;77;27426;-72
2022/12/23 09:11:37;;;;;;;61.28;34.43;;;;;;;5.38;77.11;96401.16;1830153;77;25640;-72
2022/12/23 09:14:07;;;;;;;64.72;34.58;;;;;;;5.30;77.19;96405.38;1806981;77;25718;-74
2022/12/23 09:16:33;;;;;;;56.13;31.25;;;;;;;5.25;77.30;96399.80;1797503;77;25694;-73
2022/12/23 09:19:00;;;;;;;55.63;30.48;;;;;;;5.24;77.43;96394.13;1797444;77;25732;-73
2022/12/23 09:21:27;;;;;;;36.03;21.33;;;;;;;5.23;77.51;96399.17;1805581;77;27432;-74
2022/12/23 09:23:54;;;;;;;31.12;20.02;;;;;;;5.23;77.59;96396.48;1835057;77;25831;-73
2022/12/23 09:26:27;;;;;;;42.48;24.75;;;;;;;5.24;77.79;96392.79;1841849;77;25775;-73
2022/12/23 09:28:55;;;;;;;52.45;27.98;;;;;;;5.26;77.86;96385.39;1830991;77;25865;-73
2022/12/23 09:31:22;;;;;;;35.03;19.95;;;;;;;5.29;77.97;96379.64;1786833;77;26252;-74
2022/12/23 09:33:52;;;;;;;39.35;23.57;;;;;;;5.32;78.16;96379.21;1786805;77;27431;-71
2022/12/23 09:36:20;;;;;;;34.10;19.70;;;;;;;5.37;78.27;96375.42;1803301;77;25822;-74
2022/12/23 09:38:47;;;;;;;34.83;20.08;;;;;;;5.44;78.35;96372.74;1784154;77;25482;-73
2022/12/23 09:41:54;;;;;;;32.03;18.40;;;;;;;5.52;78.56;96373.08;1806632;77;26464;-72
2022/12/23 09:45:04;;;;;;;22.48;14.60;;;;;;;5.68;78.73;96364.11;1780373;77;25617;-72
2022/12/23 09:47:33;;;;;;;25.00;15.90;;;;;;;5.87;78.83;96370.50;1811117;77;27407;-73
2022/12/23 09:50:05;;;;;;;25.05;13.88;;;;;;;5.98;78.80;96358.37;1780369;77;25651;-74
2022/12/23 09:52:49;;;;;;;22.95;12.90;;;;;;;6.04;78.91;96352.16;1758266;81;25892;-74
2022/12/23 09:55:18;;;;;;;22.90;12.18;;;;;;;6.12;78.92;96346.61;1763426;80;25748;-72
2022/12/23 09:57:59;;;;;;;24.32;13.28;;;;;;;6.19;78.83;96349.26;1750316;80;25780;-73
2022/12/23 10:00:37;;;;;;;20.65;11.65;;;;;;;6.25;78.75;96341.73;1734347;81;27383;-72
2022/12/23 10:03:27;;;;;;;21.15;11.73;;;;;;;6.30;78.71;96344.59;1677801;83;25857;-73
2022/12/23 10:06:08;;;;;;;20.65;12.28;;;;;;;6.31;78.62;96330.98;1625873;86;25869;-73
2022/12/23 10:08:47;;;;;;;21.40;12.50;;;;;;;6.34;78.61;96331.91;1622185;86;25744;-72
2022/12/23 10:11:21;;;;;;;23.60;14.40;;;;;;;6.37;78.54;96333.35;1625755;86;25968;-71
2022/12/23 10:14:04;;;;;;;24.07;14.07;;;;;;;6.38;78.42;96324.28;1625955;86;27378;-74
2022/12/23 10:16:36;;;;;;;25.20;13.40;;;;;;;6.40;78.45;96306.93;1625749;86;25837;-73
2022/12/23 10:19:26;;;;;;;22.87;13.13;;;;;;;6.43;78.37;96312.39;1587989;89;25751;-73
2022/12/23 10:22:07;;;;;;;24.47;13.05;;;;;;;6.44;78.30;96303.31;1513858;92;25891;-73
2022/12/23 10:24:41;;;;;;;17.32;11.03;;;;;;;6.46;78.33;96307.95;1472416;95;25799;-73
2022/12/23 10:27:36;;;;;;;16.25;11.28;;;;;;;6.49;78.25;96299.50;1472524;95;27436;-73
2022/12/23 10:30:14;;;;;;;18.67;10.05;;;;;;;6.51;78.21;96289.38;1488430;94;25885;-73
2022/12/23 10:33:19;;;;;;;14.15;9.10;;;;;;;6.55;78.22;96285.22;1440109;99;25946;-73
2022/12/23 10:36:02;;;;;;;15.80;8.85;;;;;;;6.60;78.10;96285.94;1440230;99;25898;-71
2022/12/23 10:38:34;;;;;;;14.95;8.50;;;;;;;6.63;78.06;96282.31;1439706;99;25961;-73
2022/12/23 10:41:52;;;;;;;12.30;7.42;;;;;;;6.68;78.09;96283.82;1466600;97;32592;-75
2022/12/23 10:44:47;;;;;;;10.30;7.47;;;;;;;6.76;78.18;96281.43;1475364;97;25774;-73
2022/12/23 10:47:36;;;;;;;10.98;6.95;;;;;;;6.84;78.07;96277.14;1473758;97;25933;-72
2022/12/23 10:50:20;;;;;;;10.48;7.53;;;;;;;6.91;78.06;96276.57;1508099;94;25909;-72
2022/12/23 10:52:49;;;;;;;12.07;7.45;;;;;;;6.95;77.92;96270.27;1516481;94;25783;-75
2022/12/23 10:55:23;;;;;;;12.43;7.37;;;;;;;6.98;77.96;96273.87;1519513;94;28227;-73
2022/12/23 10:57:51;;;;;;;14.75;7.50;;;;;;;7.00;77.88;96269.11;1517683;94;25894;-72
2022/12/23 11:00:21;;;;;;;10.70;7.10;;;;;;;7.02;77.82;96258.44;1555061;90;25776;-73
2022/12/23 11:03:08;;;;;;;12.88;7.58;;;;;;;7.07;77.88;96264.51;1554295;91;25830;-73
2022/12/23 11:05:35;;;;;;;12.50;8.48;;;;;;;7.13;77.94;96252.89;1532027;92;25829;-72
2022/12/23 11:08:02;;;;;;;18.87;9.68;;;;;;;7.20;77.82;96255.03;1550097;91;27419;-73
2022/12/23 11:10:32;;;;;;;16.40;9.43;;;;;;;7.23;77.64;96249.23;1584510;88;25548;-73
2022/12/23 11:13:00;;;;;;;19.02;10.20;;;;;;;7.29;77.49;96253.70;1619154;87;25807;-72
2022/12/23 11:15:37;;;;;;;14.20;9.50;;;;;;;7.33;77.39;96254.10;1662191;84;25800;-73
2022/12/23 11:18:15;;;;;;;16.73;9.65;;;;;;;7.36;77.31;96248.30;1699663;82;25781;-73
2022/12/23 11:20:44;;;;;;;21.50;12.88;;;;;;;7.39;77.22;96243.30;1699775;84;27442;-72
2022/12/23 11:23:27;;;;;;;21.70;13.50;;;;;;;7.41;77.00;96233.69;1674459;84;25650;-73
2022/12/23 11:26:07;;;;;;;;;;;;;;;7.42;76.88;96241.52;1702193;84;25737;-73
2022/12/23 11:28:47;;;;;;;20.57;11.65;;;;;;;7.41;76.59;96250.62;1697641;83;25829;-72
2022/12/23 11:31:16;;;;;;;17.20;9.40;;;;;;;7.39;76.53;96240.61;1685796;84;25817;-73
2022/12/23 11:33:59;;;;;;;20.35;10.00;;;;;;;7.35;76.52;96239.95;1697605;84;27421;-73
2022/12/23 11:36:28;;;;;;;13.53;8.25;;;;;;;7.36;76.50;96238.39;1686631;85;25744;-73
2022/12/23 11:39:15;;;;;;;18.57;8.98;;;;;;;7.36;76.37;96241.08;1686942;85;25717;-72
2022/12/23 11:41:46;;;;;;;14.90;9.28;;;;;;;7.39;76.43;96237.92;1689637;82;25696;-72
2022/12/23 11:44:34;;;;;;;17.12;9.95;;;;;;;7.42;76.52;96238.84;1743284;79;25834;-73
2022/12/23 11:47:24;;;;;;;14.65;9.53;;;;;;;7.43;76.57;96241.00;1776882;79;27389;-72
2022/12/23 11:49:58;;;;;;;14.30;8.68;;;;;;;7.41;76.38;96243.91;1685602;82;25736;-73
2022/12/23 11:52:28;;;;;;;13.48;8.78;;;;;;;7.39;76.31;96241.95;1620810;88;25432;-74
2022/12/23 11:55:01;;;;;;;13.48;8.60;;;;;;;7.39;76.24;96247.32;1670383;85;25742;-72
2022/12/23 11:57:44;;;;;;;15.83;9.88;;;;;;;7.41;76.20;96245.77;1670192;85;25719;-74
2022/12/23 12:00:31;;;;;;;13.25;8.23;;;;;;;7.39;76.07;96240.61;1670347;85;27381;-75
2022/12/23 12:03:03;;;;;;;14.13;7.97;;;;;;;7.31;75.94;96249.47;1670244;85;25786;-74
2022/12/23 12:05:35;;;;;;;;;;;;;;;7.31;76.07;96250.81;1672530;85;25749;-73
2022/12/23 12:08:10;;;;;;;10.55;5.35;;;;;;;7.38;76.10;96256.94;1653635;86;25740;-74
2022/12/23 12:10:39;;;;;;;10.38;5.92;;;;;;;7.47;76.15;96265.04;1640161;87;25821;-75
2022/12/23 12:13:26;;;;;;;10.98;5.67;;;;;;;7.56;76.10;96263.20;1644006;86;27110;-73
2022/12/23 12:16:32;;;;;;;17.73;8.60;;;;;;;7.66;75.99;96268.58;1596834;88;25908;-74
2022/12/23 12:19:25;;;;;;;22.37;11.18;;;;;;;7.75;75.90;96265.91;1590665;88;26549;-73
2022/12/23 12:21:53;;;;;;;;;;;;;;;7.81;75.74;96265.86;1518275;92;25861;-73
2022/12/23 12:24:37;;;;;;;23.65;10.95;;;;;;;7.86;75.42;96270.55;1526042;92;25401;-72
2022/12/23 12:27:08;;;;;;;15.80;8.95;;;;;;;7.88;75.47;96267.13;1539722;90;27484;-73
2022/12/23 12:29:50;;;;;;;18.10;9.35;;;;;;;7.90;75.38;96272.58;1576033;90;25553;-74
2022/12/23 12:32:46;;;;;;;12.40;5.87;;;;;;;7.94;75.35;96274.31;1573341;90;25824;-72
2022/12/23 12:35:18;;;;;;;14.45;7.33;;;;;;;7.94;75.28;96275.14;1575959;90;26613;-72